sensor_id;sensor_type;location;lat;lon;timestamp;temperature;humidity
71551;DHT22;59367;48.414;9.872;2023-06-04T00:01:04;15.52033234;58.47320557
71551;DHT22;59367;48.414;9.872;2023-06-04T00:02:13;15.5069809;58.49456787
71551;DHT22;59367;48.414;9.872;2023-06-04T00:03:20;15.49362946;58.85772705
71551;DHT22;59367;48.414;9.872;2023-06-04T00:04:28;15.47760773;58.75549316
71551;DHT22;59367;48.414;9.872;2023-06-04T00:05:36;15.46425629;58.8104248
71551;DHT22;59367;48.414;9.872;2023-06-04T00:06:43;15.46425629;59.19036865
71551;DHT22;59367;48.414;9.872;2023-06-04T00:07:51;15.45090485;59.0637207
71551;DHT22;59367;48.414;9.872;2023-06-04T00:08:59;15.40818024;59.09881592
71551;DHT22;59367;48.414;9.872;2023-06-04T00:10:07;15.42153168;59.11254883
71551;DHT22;59367;48.414;9.872;2023-06-04T00:11:15;15.38147736;59.02099609
71551;DHT22;59367;48.414;9.872;2023-06-04T00:12:23;15.3948288;58.85314941
71551;DHT22;59367;48.414;9.872;2023-06-04T00:13:30;15.38147736;58.60900879
71551;DHT22;59367;48.414;9.872;2023-06-04T00:14:38;15.40818024;58.43505859
71551;DHT22;59367;48.414;9.872;2023-06-04T00:15:46;15.38147736;58.27636719
71551;DHT22;59367;48.414;9.872;2023-06-04T00:16:53;15.35210037;58.22601318
71551;DHT22;59367;48.414;9.872;2023-06-04T00:18:01;15.3227272;58.44421387
71551;DHT22;59367;48.414;9.872;2023-06-04T00:19:08;15.30937576;58.63189697
71551;DHT22;59367;48.414;9.872;2023-06-04T00:20:17;15.30937576;58.54187012
71551;DHT22;59367;48.414;9.872;2023-06-04T00:21:24;15.29602432;58.54034424
71551;DHT22;59367;48.414;9.872;2023-06-04T00:22:32;15.26665115;58.59222412
71551;DHT22;59367;48.414;9.872;2023-06-04T00:23:40;15.22392654;58.46405029
71551;DHT22;59367;48.414;9.872;2023-06-04T00:24:47;15.20790482;58.61816406
71551;DHT22;59367;48.414;9.872;2023-06-04T00:25:55;15.16518021;58.58764648
71551;DHT22;59367;48.414;9.872;2023-06-04T00:27:03;15.18120193;58.60137939
71551;DHT22;59367;48.414;9.872;2023-06-04T00:28:11;15.16518021;58.57849121
71551;DHT22;59367;48.414;9.872;2023-06-04T00:29:18;15.12512589;58.60595703
71551;DHT22;59367;48.414;9.872;2023-06-04T00:30:26;15.10910034;58.67919922
71551;DHT22;59367;48.414;9.872;2023-06-04T00:31:34;15.0957489;58.64562988
71551;DHT22;59367;48.414;9.872;2023-06-04T00:32:41;15.06904602;58.81958008
71551;DHT22;59367;48.414;9.872;2023-06-04T00:33:49;15.05302429;58.81652832
71551;DHT22;59367;48.414;9.872;2023-06-04T00:35:00;15.02632141;58.79211426
71551;DHT22;59367;48.414;9.872;2023-06-04T00:36:07;15.01029968;58.85314941
71551;DHT22;59367;48.414;9.872;2023-06-04T00:37:15;14.99694824;58.79669189
71551;DHT22;59367;48.414;9.872;2023-06-04T00:38:23;14.97024536;58.82873535
71551;DHT22;59367;48.414;9.872;2023-06-04T00:39:30;14.92752075;58.76617432
71551;DHT22;59367;48.414;9.872;2023-06-04T00:40:38;14.92752075;58.8104248
71551;DHT22;59367;48.414;9.872;2023-06-04T00:41:46;14.91149902;58.88366699
71551;DHT22;59367;48.414;9.872;2023-06-04T00:42:53;14.88479614;58.85772705
71551;DHT22;59367;48.414;9.872;2023-06-04T00:44:01;14.89814758;58.89282227
71551;DHT22;59367;48.414;9.872;2023-06-04T00:45:10;14.88479614;58.80279541
71551;DHT22;59367;48.414;9.872;2023-06-04T00:46:18;14.85541916;59.00878906
71551;DHT22;59367;48.414;9.872;2023-06-04T00:47:26;14.82871628;58.95385742
71551;DHT22;59367;48.414;9.872;2023-06-04T00:48:34;14.81536484;59.23156738
71551;DHT22;59367;48.414;9.872;2023-06-04T00:49:41;14.79934311;59.27886963
71551;DHT22;59367;48.414;9.872;2023-06-04T00:50:50;14.78599167;59.35211182
71551;DHT22;59367;48.414;9.872;2023-06-04T00:51:58;14.7566185;59.25445557
71551;DHT22;59367;48.414;9.872;2023-06-04T00:53:06;14.74326706;59.31396484
71551;DHT22;59367;48.414;9.872;2023-06-04T00:54:14;14.71656418;59.48486328
71551;DHT22;59367;48.414;9.872;2023-06-04T00:55:23;14.70054245;59.40093994
71551;DHT22;59367;48.414;9.872;2023-06-04T00:56:30;14.70054245;59.44213867
71551;DHT22;59367;48.414;9.872;2023-06-04T00:57:38;14.67383957;59.43756104
71551;DHT22;59367;48.414;9.872;2023-06-04T00:58:48;14.66048813;59.44671631
71551;DHT22;59367;48.414;9.872;2023-06-04T00:59:56;14.66048813;59.43756104
71551;DHT22;59367;48.414;9.872;2023-06-04T01:01:07;14.63111496;59.49401855
71551;DHT22;59367;48.414;9.872;2023-06-04T01:02:21;14.58838654;59.48944092
71551;DHT22;59367;48.414;9.872;2023-06-04T01:03:31;14.58838654;59.5199585
71551;DHT22;59367;48.414;9.872;2023-06-04T01:04:46;14.5750351;59.35211182
71551;DHT22;59367;48.414;9.872;2023-06-04T01:05:59;14.5750351;59.47570801
71551;DHT22;59367;48.414;9.872;2023-06-04T01:07:10;14.56168365;59.71374512
71551;DHT22;59367;48.414;9.872;2023-06-04T01:08:18;14.51895905;59.66644287
71551;DHT22;59367;48.414;9.872;2023-06-04T01:09:28;14.51895905;59.62524414
71551;DHT22;59367;48.414;9.872;2023-06-04T01:10:36;14.48958588;59.81750488
71551;DHT22;59367;48.414;9.872;2023-06-04T01:11:44;14.46021271;59.8236084
71551;DHT22;59367;48.414;9.872;2023-06-04T01:12:51;14.46021271;59.77172852
71551;DHT22;59367;48.414;9.872;2023-06-04T01:13:59;14.4174881;59.82666016
71551;DHT22;59367;48.414;9.872;2023-06-04T01:15:07;14.44419098;60.03723145
71551;DHT22;59367;48.414;9.872;2023-06-04T01:16:16;14.37475967;60.05706787
71551;DHT22;59367;48.414;9.872;2023-06-04T01:17:28;14.38811493;59.95635986
71551;DHT22;59367;48.414;9.872;2023-06-04T01:18:38;14.34805679;59.95025635
71551;DHT22;59367;48.414;9.872;2023-06-04T01:21:30;14.31868362;59.80987549
71551;DHT22;59367;48.414;9.872;2023-06-04T01:22:42;14.33203506;59.77172852
71551;DHT22;59367;48.414;9.872;2023-06-04T01:23:53;14.27595901;59.75494385
71551;DHT22;59367;48.414;9.872;2023-06-04T01:25:03;14.27595901;59.81445313
71551;DHT22;59367;48.414;9.872;2023-06-04T01:26:13;14.24925613;59.77172852
71551;DHT22;59367;48.414;9.872;2023-06-04T01:27:20;14.26260757;59.7946167
71551;DHT22;59367;48.414;9.872;2023-06-04T01:28:28;14.21988297;59.7869873
71551;DHT22;59367;48.414;9.872;2023-06-04T01:29:37;14.20653152;59.80529785
71551;DHT22;59367;48.414;9.872;2023-06-04T01:30:46;14.21988297;59.94262695
71551;DHT22;59367;48.414;9.872;2023-06-04T01:31:55;14.1905098;60.00976563
71551;DHT22;59367;48.414;9.872;2023-06-04T01:33:04;14.16380692;60.07995605
71551;DHT22;59367;48.414;9.872;2023-06-04T01:34:12;14.17715836;60.15319824
71551;DHT22;59367;48.414;9.872;2023-06-04T01:35:20;14.15045547;60.13793945
71551;DHT22;59367;48.414;9.872;2023-06-04T01:36:28;14.13443375;59.99298096
71551;DHT22;59367;48.414;9.872;2023-06-04T01:37:35;14.13443375;60.04333496
71551;DHT22;59367;48.414;9.872;2023-06-04T01:38:43;14.12107849;59.92736816
71551;DHT22;59367;48.414;9.872;2023-06-04T01:39:51;14.10772705;59.96551514
71551;DHT22;59367;48.414;9.872;2023-06-04T01:40:58;14.10772705;59.95635986
71551;DHT22;59367;48.414;9.872;2023-06-04T01:42:06;14.10772705;59.98840332
71551;DHT22;59367;48.414;9.872;2023-06-04T01:43:14;14.07835388;59.95178223
71551;DHT22;59367;48.414;9.872;2023-06-04T01:44:22;14.06500244;59.94110107
71551;DHT22;59367;48.414;9.872;2023-06-04T01:45:30;14.06500244;59.91973877
71551;DHT22;59367;48.414;9.872;2023-06-04T01:46:38;14.051651;59.93804932
71551;DHT22;59367;48.414;9.872;2023-06-04T01:47:46;14.03562927;59.88616943
71551;DHT22;59367;48.414;9.872;2023-06-04T01:48:53;14.00892639;59.93347168
71551;DHT22;59367;48.414;9.872;2023-06-04T01:50:01;13.97955322;59.89685059
71551;DHT22;59367;48.414;9.872;2023-06-04T01:51:08;13.99557495;59.9319458
71551;DHT22;59367;48.414;9.872;2023-06-04T01:52:16;13.97955322;59.8449707
71551;DHT22;59367;48.414;9.872;2023-06-04T01:53:24;13.9394989;59.79614258
71551;DHT22;59367;48.414;9.872;2023-06-04T01:54:31;13.9394989;59.77783203
71551;DHT22;59367;48.414;9.872;2023-06-04T01:55:39;13.9394989;59.77783203
71551;DHT22;59367;48.414;9.872;2023-06-04T01:56:47;13.91012573;60.00976563
71551;DHT22;59367;48.414;9.872;2023-06-04T01:57:54;13.91012573;60.11505127
71551;DHT22;59367;48.414;9.872;2023-06-04T01:59:02;13.89677429;60.15319824
71551;DHT22;59367;48.414;9.872;2023-06-04T02:00:11;13.92347717;60.19897461
71551;DHT22;59367;48.414;9.872;2023-06-04T02:01:19;13.88075256;60.36834717
71551;DHT22;59367;48.414;9.872;2023-06-04T02:02:27;13.88075256;60.35766602
71551;DHT22;59367;48.414;9.872;2023-06-04T02:03:34;13.88075256;60.4095459
71551;DHT22;59367;48.414;9.872;2023-06-04T02:04:42;13.85404587;60.41717529
71551;DHT22;59367;48.414;9.872;2023-06-04T02:05:50;13.85404587;60.34393311
71551;DHT22;59367;48.414;9.872;2023-06-04T02:06:57;13.88075256;60.21118164
71551;DHT22;59367;48.414;9.872;2023-06-04T02:08:05;13.84069443;60.29052734
71551;DHT22;59367;48.414;9.872;2023-06-04T02:09:13;13.8246727;60.15319824
71551;DHT22;59367;48.414;9.872;2023-06-04T02:10:22;13.81132126;59.87243652
71551;DHT22;59367;48.414;9.872;2023-06-04T02:11:29;13.78461838;59.60845947
71551;DHT22;59367;48.414;9.872;2023-06-04T02:12:40;13.79796982;59.41619873
71551;DHT22;59367;48.414;9.872;2023-06-04T02:13:48;13.75524521;59.24530029
71551;DHT22;59367;48.414;9.872;2023-06-04T02:14:55;13.75524521;59.24530029
71551;DHT22;59367;48.414;9.872;2023-06-04T02:16:03;13.72587204;59.22851563
71551;DHT22;59367;48.414;9.872;2023-06-04T02:17:11;13.72587204;59.26055908
71551;DHT22;59367;48.414;9.872;2023-06-04T02:18:21;13.68314743;59.19494629
71551;DHT22;59367;48.414;9.872;2023-06-04T02:19:29;13.68314743;59.23614502
71551;DHT22;59367;48.414;9.872;2023-06-04T02:20:36;13.6671257;59.19189453
71551;DHT22;59367;48.414;9.872;2023-06-04T02:21:44;13.61104584;59.18273926
71551;DHT22;59367;48.414;9.872;2023-06-04T02:22:53;13.58434296;59.34295654
71551;DHT22;59367;48.414;9.872;2023-06-04T02:24:01;13.58434296;59.61303711
71551;DHT22;59367;48.414;9.872;2023-06-04T02:25:09;13.56832123;59.71221924
71551;DHT22;59367;48.414;9.872;2023-06-04T02:26:17;13.54161835;59.62677002
71551;DHT22;59367;48.414;9.872;2023-06-04T02:27:24;13.56832123;59.50622559
71551;DHT22;59367;48.414;9.872;2023-06-04T02:28:32;13.54161835;59.56573486
71551;DHT22;59367;48.414;9.872;2023-06-04T02:29:40;13.51224518;59.58099365
71551;DHT22;59367;48.414;9.872;2023-06-04T02:30:48;13.49889374;59.68170166
71551;DHT22;59367;48.414;9.872;2023-06-04T02:31:56;13.4855423;59.77172852
71551;DHT22;59367;48.414;9.872;2023-06-04T02:33:04;13.44281769;59.77630615
71551;DHT22;59367;48.414;9.872;2023-06-04T02:34:11;13.42946625;59.7442627
71551;DHT22;59367;48.414;9.872;2023-06-04T02:35:19;13.42946625;59.67254639
71551;DHT22;59367;48.414;9.872;2023-06-04T02:36:28;13.41344452;59.85565186
71551;DHT22;59367;48.414;9.872;2023-06-04T02:37:35;13.38674164;60.17150879
71551;DHT22;59367;48.414;9.872;2023-06-04T02:38:43;13.37338638;60.35461426
71551;DHT22;59367;48.414;9.872;2023-06-04T02:39:51;13.34401321;60.21728516
71551;DHT22;59367;48.414;9.872;2023-06-04T02:40:59;13.34401321;60.41259766
71551;DHT22;59367;48.414;9.872;2023-06-04T02:42:07;13.31731033;60.38665771
71551;DHT22;59367;48.414;9.872;2023-06-04T02:43:14;13.3012886;60.4675293
71551;DHT22;59367;48.414;9.872;2023-06-04T02:44:22;13.28793716;60.45532227
71551;DHT22;59367;48.414;9.872;2023-06-04T02:45:30;13.258564;60.52246094
71551;DHT22;59367;48.414;9.872;2023-06-04T02:46:38;13.258564;60.49194336
71551;DHT22;59367;48.414;9.872;2023-06-04T02:47:46;13.21850967;60.496521
71551;DHT22;59367;48.414;9.872;2023-06-04T02:48:53;13.21850967;60.53771973
71551;DHT22;59367;48.414;9.872;2023-06-04T02:50:01;13.21850967;60.66131592
71551;DHT22;59367;48.414;9.872;2023-06-04T02:51:09;13.20248795;60.68878174
71551;DHT22;59367;48.414;9.872;2023-06-04T02:52:17;13.17578506;60.56365967
71551;DHT22;59367;48.414;9.872;2023-06-04T02:53:24;13.18913651;60.59570313
71551;DHT22;59367;48.414;9.872;2023-06-04T02:54:32;13.18913651;60.51330566
71551;DHT22;59367;48.414;9.872;2023-06-04T02:55:40;13.15976334;60.4675293
71551;DHT22;59367;48.414;9.872;2023-06-04T02:56:47;13.15976334;60.38513184
71551;DHT22;59367;48.414;9.872;2023-06-04T02:57:55;13.15976334;60.57891846
71551;DHT22;59367;48.414;9.872;2023-06-04T02:59:03;13.15976334;60.69335938
71551;DHT22;59367;48.414;9.872;2023-06-04T03:00:13;13.1197052;60.57434082
71551;DHT22;59367;48.414;9.872;2023-06-04T03:01:25;13.1197052;60.48126221
71551;DHT22;59367;48.414;9.872;2023-06-04T03:02:33;13.09033203;60.48736572
71551;DHT22;59367;48.414;9.872;2023-06-04T03:03:40;13.10368347;60.4598999
71551;DHT22;59367;48.414;9.872;2023-06-04T03:04:48;13.07698059;60.53771973
71551;DHT22;59367;48.414;9.872;2023-06-04T03:05:56;13.09033203;60.35308838
71551;DHT22;59367;48.414;9.872;2023-06-04T03:07:04;13.02090454;60.34393311
71551;DHT22;59367;48.414;9.872;2023-06-04T03:08:12;13.04760742;60.44006348
71551;DHT22;59367;48.414;9.872;2023-06-04T03:09:20;13.04760742;60.35766602
71551;DHT22;59367;48.414;9.872;2023-06-04T03:10:27;13.06362915;60.57739258
71551;DHT22;59367;48.414;9.872;2023-06-04T03:11:35;13.04760742;60.50109863
71551;DHT22;59367;48.414;9.872;2023-06-04T03:12:43;13.03425598;60.47821045
71551;DHT22;59367;48.414;9.872;2023-06-04T03:13:51;13.02090454;60.56976318
71551;DHT22;59367;48.414;9.872;2023-06-04T03:14:58;13.02090454;60.41717529
71551;DHT22;59367;48.414;9.872;2023-06-04T03:16:07;13.00488281;60.23864746
71551;DHT22;59367;48.414;9.872;2023-06-04T03:17:15;13.02090454;60.26153564
71551;DHT22;59367;48.414;9.872;2023-06-04T03:18:22;12.99153137;60.11199951
71551;DHT22;59367;48.414;9.872;2023-06-04T03:19:30;12.96482849;59.95483398
71551;DHT22;59367;48.414;9.872;2023-06-04T03:20:38;12.99153137;59.86785889
71551;DHT22;59367;48.414;9.872;2023-06-04T03:21:45;12.97817993;59.71832275
71551;DHT22;59367;48.414;9.872;2023-06-04T03:22:53;12.93545532;59.80529785
71551;DHT22;59367;48.414;9.872;2023-06-04T03:24:01;12.94880676;59.81903076
71551;DHT22;59367;48.414;9.872;2023-06-04T03:25:09;12.92210388;59.62982178
71551;DHT22;59367;48.414;9.872;2023-06-04T03:26:17;12.92210388;59.54742432
71551;DHT22;59367;48.414;9.872;2023-06-04T03:27:25;12.92210388;59.44366455
71551;DHT22;59367;48.414;9.872;2023-06-04T03:28:32;12.90875244;59.58557129
71551;DHT22;59367;48.414;9.872;2023-06-04T03:29:41;12.87670898;59.57183838
71551;DHT22;59367;48.414;9.872;2023-06-04T03:30:49;12.847332;59.56726074
71551;DHT22;59367;48.414;9.872;2023-06-04T03:31:56;12.86335373;59.70306396
71551;DHT22;59367;48.414;9.872;2023-06-04T03:33:04;12.847332;59.73205566
71551;DHT22;59367;48.414;9.872;2023-06-04T03:34:12;12.79125595;59.86785889
71551;DHT22;59367;48.414;9.872;2023-06-04T03:35:20;12.77790451;59.96856689
71551;DHT22;59367;48.414;9.872;2023-06-04T03:36:29;12.77790451;60.21575928
71551;DHT22;59367;48.414;9.872;2023-06-04T03:37:37;12.75120163;60.0982666
71551;DHT22;59367;48.414;9.872;2023-06-04T03:38:45;12.75120163;60.06622314
71551;DHT22;59367;48.414;9.872;2023-06-04T03:39:53;12.75120163;60.13946533
71551;DHT22;59367;48.414;9.872;2023-06-04T03:41:01;12.75120163;60.28442383
71551;DHT22;59367;48.414;9.872;2023-06-04T03:42:08;12.72182846;60.6918335
71551;DHT22;59367;48.414;9.872;2023-06-04T03:43:16;12.7351799;60.92987061
71551;DHT22;59367;48.414;9.872;2023-06-04T03:44:25;12.7351799;60.71472168
71551;DHT22;59367;48.414;9.872;2023-06-04T03:45:32;12.70847702;60.49499512
71551;DHT22;59367;48.414;9.872;2023-06-04T03:46:40;12.7351799;60.21118164
71551;DHT22;59367;48.414;9.872;2023-06-04T03:47:49;12.72182846;60.0112915
71551;DHT22;59367;48.414;9.872;2023-06-04T03:48:56;12.70847702;59.97924805
71551;DHT22;59367;48.414;9.872;2023-06-04T03:50:04;12.70847702;59.99755859
71551;DHT22;59367;48.414;9.872;2023-06-04T03:51:12;12.69245529;60.21270752
71551;DHT22;59367;48.414;9.872;2023-06-04T03:52:20;12.69245529;60.14251709
71551;DHT22;59367;48.414;9.872;2023-06-04T03:53:27;12.67910385;60.21118164
71551;DHT22;59367;48.414;9.872;2023-06-04T03:54:35;12.67910385;60.06622314
71551;DHT22;59367;48.414;9.872;2023-06-04T03:55:43;12.69245529;60.00671387
71551;DHT22;59367;48.414;9.872;2023-06-04T03:56:51;12.70847702;60.2355957
71551;DHT22;59367;48.414;9.872;2023-06-04T03:57:59;12.69245529;60.22186279
71551;DHT22;59367;48.414;9.872;2023-06-04T03:59:06;12.67910385;60.26306152
71551;DHT22;59367;48.414;9.872;2023-06-04T04:00:15;12.66575241;60.34393311
71551;DHT22;59367;48.414;9.872;2023-06-04T04:01:23;12.66575241;60.24932861
71551;DHT22;59367;48.414;9.872;2023-06-04T04:02:31;12.66575241;60.18829346
71551;DHT22;59367;48.414;9.872;2023-06-04T04:03:39;12.69245529;60.22186279
71551;DHT22;59367;48.414;9.872;2023-06-04T04:04:46;12.66575241;60.26153564
71551;DHT22;59367;48.414;9.872;2023-06-04T04:05:54;12.66575241;60.29052734
71551;DHT22;59367;48.414;9.872;2023-06-04T04:07:02;12.65240097;60.3302002
71551;DHT22;59367;48.414;9.872;2023-06-04T04:08:10;12.66575241;60.28137207
71551;DHT22;59367;48.414;9.872;2023-06-04T04:09:17;12.66575241;60.17913818
71551;DHT22;59367;48.414;9.872;2023-06-04T04:10:25;12.66575241;60.18829346
71551;DHT22;59367;48.414;9.872;2023-06-04T04:11:33;12.66575241;60.20812988
71551;DHT22;59367;48.414;9.872;2023-06-04T04:12:40;12.67910385;60.16082764
71551;DHT22;59367;48.414;9.872;2023-06-04T04:13:49;12.67910385;60.36682129
71551;DHT22;59367;48.414;9.872;2023-06-04T04:14:56;12.66575241;60.48736572
71551;DHT22;59367;48.414;9.872;2023-06-04T04:16:04;12.67910385;60.57281494
71551;DHT22;59367;48.414;9.872;2023-06-04T04:17:12;12.69245529;60.56365967
71551;DHT22;59367;48.414;9.872;2023-06-04T04:18:20;12.66575241;60.62927246
71551;DHT22;59367;48.414;9.872;2023-06-04T04:19:28;12.67910385;60.61401367
71551;DHT22;59367;48.414;9.872;2023-06-04T04:20:36;12.66575241;60.61096191
71551;DHT22;59367;48.414;9.872;2023-06-04T04:21:43;12.67910385;60.79864502
71551;DHT22;59367;48.414;9.872;2023-06-04T04:22:51;12.72182846;60.79406738
71551;DHT22;59367;48.414;9.872;2023-06-04T04:23:59;12.7351799;60.71472168
71551;DHT22;59367;48.414;9.872;2023-06-04T04:25:07;12.72182846;60.7711792
71551;DHT22;59367;48.414;9.872;2023-06-04T04:26:15;12.76455307;60.71929932
71551;DHT22;59367;48.414;9.872;2023-06-04T04:27:23;12.77790451;60.89477539
71551;DHT22;59367;48.414;9.872;2023-06-04T04:28:30;12.76455307;60.95428467
71551;DHT22;59367;48.414;9.872;2023-06-04T04:29:38;12.75120163;61.01379395
71551;DHT22;59367;48.414;9.872;2023-06-04T04:30:46;12.77790451;60.94512939
71551;DHT22;59367;48.414;9.872;2023-06-04T04:31:54;12.82062912;60.82000732
71551;DHT22;59367;48.414;9.872;2023-06-04T04:33:02;12.82062912;60.66436768
71551;DHT22;59367;48.414;9.872;2023-06-04T04:34:10;12.83398056;60.63690186
71551;DHT22;59367;48.414;9.872;2023-06-04T04:35:18;12.82062912;60.83984375
71551;DHT22;59367;48.414;9.872;2023-06-04T04:36:26;12.82062912;60.73455811
71551;DHT22;59367;48.414;9.872;2023-06-04T04:37:33;12.83398056;60.76965332
71551;DHT22;59367;48.414;9.872;2023-06-04T04:38:41;12.83398056;60.89324951
71551;DHT22;59367;48.414;9.872;2023-06-04T04:39:49;12.847332;60.9954834
71551;DHT22;59367;48.414;9.872;2023-06-04T04:40:56;12.83398056;61.07788086
71551;DHT22;59367;48.414;9.872;2023-06-04T04:42:04;12.847332;61.16333008
71551;DHT22;59367;48.414;9.872;2023-06-04T04:43:12;12.87670898;61.31134033
71551;DHT22;59367;48.414;9.872;2023-06-04T04:44:19;12.90875244;61.5020752
71551;DHT22;59367;48.414;9.872;2023-06-04T04:45:27;12.92210388;61.59515381
71551;DHT22;59367;48.414;9.872;2023-06-04T04:46:35;12.94880676;61.66229248
71551;DHT22;59367;48.414;9.872;2023-06-04T04:47:42;12.96482849;61.74621582
71551;DHT22;59367;48.414;9.872;2023-06-04T04:48:50;12.97817993;61.51123047
71551;DHT22;59367;48.414;9.872;2023-06-04T04:49:58;13.02090454;61.47613525
71551;DHT22;59367;48.414;9.872;2023-06-04T04:51:06;13.03425598;61.75537109
71551;DHT22;59367;48.414;9.872;2023-06-04T04:52:13;13.06362915;61.80114746
71551;DHT22;59367;48.414;9.872;2023-06-04T04:53:21;13.10368347;61.84997559
71551;DHT22;59367;48.414;9.872;2023-06-04T04:54:29;13.13306046;61.64855957
71551;DHT22;59367;48.414;9.872;2023-06-04T04:55:36;13.15976334;61.74468994
71551;DHT22;59367;48.414;9.872;2023-06-04T04:56:44;13.15976334;61.95068359
71551;DHT22;59367;48.414;9.872;2023-06-04T04:57:52;13.20248795;61.96899414
71551;DHT22;59367;48.414;9.872;2023-06-04T04:58:59;13.20248795;61.70959473
71551;DHT22;59367;48.414;9.872;2023-06-04T05:00:08;13.21850967;61.47460938
71551;DHT22;59367;48.414;9.872;2023-06-04T05:01:16;13.23186111;61.30218506
71551;DHT22;59367;48.414;9.872;2023-06-04T05:02:24;13.27458572;61.42120361
71551;DHT22;59367;48.414;9.872;2023-06-04T05:03:31;13.3012886;61.61193848
71551;DHT22;59367;48.414;9.872;2023-06-04T05:04:39;13.3012886;62.03460693
71551;DHT22;59367;48.414;9.872;2023-06-04T05:05:47;13.33066177;61.94610596
71551;DHT22;59367;48.414;9.872;2023-06-04T05:06:54;13.34401321;61.91558838
71551;DHT22;59367;48.414;9.872;2023-06-04T05:08:02;13.34401321;61.97967529
71551;DHT22;59367;48.414;9.872;2023-06-04T05:09:10;13.34401321;61.70043945
71551;DHT22;59367;48.414;9.872;2023-06-04T05:10:17;13.37338638;61.68518066
71551;DHT22;59367;48.414;9.872;2023-06-04T05:11:25;13.41344452;61.55700684
71551;DHT22;59367;48.414;9.872;2023-06-04T05:12:33;13.44281769;61.86981201
71551;DHT22;59367;48.414;9.872;2023-06-04T05:13:41;13.45616913;61.92474365
71551;DHT22;59367;48.414;9.872;2023-06-04T05:14:49;13.47219086;61.51275635
71551;DHT22;59367;48.414;9.872;2023-06-04T05:15:56;13.51224518;61.69433594
71551;DHT22;59367;48.414;9.872;2023-06-04T05:17:04;13.54161835;61.84539795
71551;DHT22;59367;48.414;9.872;2023-06-04T05:18:12;13.58434296;62.22229004
71551;DHT22;59367;48.414;9.872;2023-06-04T05:19:20;13.62707138;62.52746582
71551;DHT22;59367;48.414;9.872;2023-06-04T05:20:28;13.65377426;62.62512207
71551;DHT22;59367;48.414;9.872;2023-06-04T05:21:35;13.69916916;62.77618408
71551;DHT22;59367;48.414;9.872;2023-06-04T05:22:43;13.75524521;63.07373047
71551;DHT22;59367;48.414;9.872;2023-06-04T05:23:51;13.78461838;62.46948242
71551;DHT22;59367;48.414;9.872;2023-06-04T05:24:59;13.84069443;62.06512451
71551;DHT22;59367;48.414;9.872;2023-06-04T05:26:06;13.86739731;61.79046631
71551;DHT22;59367;48.414;9.872;2023-06-04T05:27:14;13.91012573;61.52954102
71551;DHT22;59367;48.414;9.872;2023-06-04T05:28:22;13.9394989;61.23352051
71551;DHT22;59367;48.414;9.872;2023-06-04T05:29:29;13.96620178;60.9161377
71551;DHT22;59367;48.414;9.872;2023-06-04T05:30:37;14.02227783;60.71929932
71551;DHT22;59367;48.414;9.872;2023-06-04T05:31:45;14.03562927;60.62774658
71551;DHT22;59367;48.414;9.872;2023-06-04T05:32:52;14.09437561;61.00921631
71551;DHT22;59367;48.414;9.872;2023-06-04T05:34:00;14.10772705;61.19689941
71551;DHT22;59367;48.414;9.872;2023-06-04T05:35:08;14.15045547;61.36016846
71551;DHT22;59367;48.414;9.872;2023-06-04T05:36:17;14.20653152;61.42883301
71551;DHT22;59367;48.414;9.872;2023-06-04T05:37:24;14.21988297;61.28387451
71551;DHT22;59367;48.414;9.872;2023-06-04T05:38:32;14.26260757;61.12670898
71551;DHT22;59367;48.414;9.872;2023-06-04T05:39:40;14.31868362;61.25030518
71551;DHT22;59367;48.414;9.872;2023-06-04T05:40:48;14.36140823;60.73913574
71551;DHT22;59367;48.414;9.872;2023-06-04T05:41:55;14.4174881;60.72540283
71551;DHT22;59367;48.414;9.872;2023-06-04T05:43:03;14.48958588;60.64300537
71551;DHT22;59367;48.414;9.872;2023-06-04T05:44:11;14.53231049;60.90698242
71551;DHT22;59367;48.414;9.872;2023-06-04T05:45:19;14.56168365;60.62316895
71551;DHT22;59367;48.414;9.872;2023-06-04T05:46:26;14.60173798;60.75286865
71551;DHT22;59367;48.414;9.872;2023-06-04T05:47:34;14.63111496;60.41412354
71551;DHT22;59367;48.414;9.872;2023-06-04T05:48:42;14.68719101;60.00976563
71551;DHT22;59367;48.414;9.872;2023-06-04T05:49:49;14.71656418;60.2935791
71551;DHT22;59367;48.414;9.872;2023-06-04T05:50:57;14.7566185;60.42633057
71551;DHT22;59367;48.414;9.872;2023-06-04T05:52:05;14.79934311;60.55603027
71551;DHT22;59367;48.414;9.872;2023-06-04T05:53:13;14.82871628;60.45532227
71551;DHT22;59367;48.414;9.872;2023-06-04T05:54:20;14.91149902;60.67504883
71551;DHT22;59367;48.414;9.872;2023-06-04T05:55:28;14.91149902;60.76660156
71551;DHT22;59367;48.414;9.872;2023-06-04T05:56:36;14.9835968;60.87188721
71551;DHT22;59367;48.414;9.872;2023-06-04T05:57:43;15.03967285;61.32507324
71551;DHT22;59367;48.414;9.872;2023-06-04T05:58:54;15.08239746;61.61346436
71551;DHT22;59367;48.414;9.872;2023-06-04T06:00:02;15.12512589;62.63427734
71551;DHT22;59367;48.414;9.872;2023-06-04T06:01:10;15.18120193;62.01171875
71551;DHT22;59367;48.414;9.872;2023-06-04T06:02:17;15.22392654;61.92474365
71551;DHT22;59367;48.414;9.872;2023-06-04T06:03:25;15.28267288;61.92321777